Weather reports worldwide

Advertisment
Bealach, United Kingdom (3039): temperature & dewpoint: 15.01.2021 05:00:00 - 21.01.2021 05:00:00 (GMT)Bealach, United Kingdom (3039): wind speed & gusts: 15.01.2021 05:00:00 - 21.01.2021 05:00:00 (GMT)Bealach, United Kingdom (3039): wind direction: 15.01.2021 05:00:00 - 21.01.2021 05:00:00 (GMT)
Date & Time tt [°C] td [°C] ff [km/h] ff [kn] fx [km/h] fx [kn] dd
21.01.2021 05:00:00 - - - - - - -
21.01.2021 04:00:00 -2,3 -2,4 54 29 89 48 N
21.01.2021 03:00:00 -2,3 -2,4 26 14 48 26 N
21.01.2021 02:00:00 -2,5 -2,5 35 19 57 31 NNE
21.01.2021 01:00:00 -2,3 -2,4 35 19 63 34 NE
21.01.2021 00:00:00 -2,1 -2,2 35 19 50 27 NE
20.01.2021 23:00:00 -3,1 -3,3 18 10 - - NE
20.01.2021 22:00:00 -3,1 -3,2 9 5 - - E
20.01.2021 21:00:00 -3,0 -3,1 9 5 - - NNE
20.01.2021 20:00:00 -2,3 -2,4 16 9 - - NNW
20.01.2021 19:00:00 -2,0 -2,0 22 12 - - NNW
20.01.2021 18:00:00 -3,0 -3,0 21 11 - - N
20.01.2021 17:00:00 -3,8 -3,8 15 8 - - NNE
20.01.2021 16:00:00 -2,4 -2,4 11 6 - - NE
20.01.2021 15:00:00 -1,8 -1,9 8 4 - - NE
20.01.2021 14:00:00 -1,9 -2,2 5 3 - - ENE
20.01.2021 13:00:00 -2,4 -2,7 5 3 - - ENE
20.01.2021 12:00:00 -2,1 -2,4 8 4 - - N
20.01.2021 11:00:00 -2,9 -3,3 8 4 - - NE
20.01.2021 10:00:00 -3,4 -3,4 9 5 - - E
20.01.2021 09:00:00 -4,1 -4,3 11 6 - - NE
20.01.2021 08:00:00 -4,5 -4,8 13 7 - - N
20.01.2021 07:00:00 -4,0 -4,3 15 8 - - NE
20.01.2021 06:00:00 -3,8 -4,0 13 7 - - N
20.01.2021 05:00:00 -4,0 -4,2 9 5 - - NNW
20.01.2021 04:00:00 -4,0 -4,1 9 5 - - N
20.01.2021 03:00:00 -3,5 -3,7 13 7 - - ESE
20.01.2021 02:00:00 -3,3 -3,4 13 7 - - ESE
20.01.2021 01:00:00 -3,2 -3,3 15 8 - - ESE
20.01.2021 00:00:00 -3,0 -3,1 16 9 - - ESE
19.01.2021 23:00:00 -3,0 -3,1 11 6 - - ESE
19.01.2021 22:00:00 -2,6 -2,7 13 7 - - ENE
19.01.2021 21:00:00 -2,7 -2,7 11 6 - - E
19.01.2021 20:00:00 -2,2 -2,2 9 5 - - E
19.01.2021 19:00:00 -2,4 -2,5 8 4 - - ENE
19.01.2021 18:00:00 -1,4 -1,4 2 1 - - SSW
19.01.2021 17:00:00 -1,5 -1,5 9 5 - - SW
19.01.2021 16:00:00 -1,4 -1,4 15 8 - - SSW
19.01.2021 15:00:00 -1,4 -1,4 21 11 - - SW
19.01.2021 14:00:00 -1,4 -1,4 24 13 - - SSW
19.01.2021 13:00:00 -1,1 -1,1 21 11 - - SSW
19.01.2021 12:00:00 -1,3 -1,3 34 18 - - SW
19.01.2021 11:00:00 -1,4 -1,4 26 14 - - WSW
19.01.2021 10:00:00 -1,2 -1,2 24 13 - - WSW
19.01.2021 09:00:00 -1,3 -1,3 28 15 - - WSW
19.01.2021 08:00:00 -1,6 -1,6 28 15 - - WSW
19.01.2021 07:00:00 -1,7 -1,7 26 14 - - WSW
19.01.2021 06:00:00 -1,8 -1,8 28 15 - - WSW
19.01.2021 05:00:00 -1,6 -1,6 31 17 - - W
19.01.2021 04:00:00 -1,4 -1,4 28 15 - - W
19.01.2021 03:00:00 -1,4 -1,4 29 16 - - W
19.01.2021 02:00:00 -1,6 -1,6 28 15 - - WSW
19.01.2021 01:00:00 -2,3 -2,3 26 14 - - WSW
19.01.2021 00:00:00 -1,2 -1,2 22 12 - - W
18.01.2021 23:00:00 -1,1 -1,1 29 16 - - W
18.01.2021 22:00:00 -1,0 -1,0 31 17 - - W
18.01.2021 21:00:00 -1,1 -1,1 29 16 50 27 W
18.01.2021 20:00:00 -1,1 -1,1 31 17 48 26 W
18.01.2021 19:00:00 -1,1 -1,1 41 22 54 29 W
18.01.2021 18:00:00 -0,8 -0,8 46 25 72 39 W
18.01.2021 17:00:00 -0,9 -0,9 54 29 85 46 W
18.01.2021 16:00:00 -0,3 -0,3 48 26 65 35 W
18.01.2021 15:00:00 -0,9 -0,9 59 32 78 42 W
18.01.2021 14:00:00 -0,7 -0,7 65 35 78 42 WSW
18.01.2021 13:00:00 -0,3 -0,3 55 30 70 38 WSW
18.01.2021 12:00:00 -0,8 -0,8 48 26 72 39 WSW
18.01.2021 11:00:00 -1,0 -1,0 44 24 68 37 WSW
18.01.2021 10:00:00 -0,8 -0,8 44 24 55 30 WSW
18.01.2021 09:00:00 -0,9 -0,9 37 20 50 27 W
18.01.2021 08:00:00 -1,3 -1,3 41 22 50 27 W
18.01.2021 07:00:00 -1,7 -1,7 41 22 57 31 W
18.01.2021 06:00:00 -1,3 -1,3 44 24 57 31 W
18.01.2021 05:00:00 -1,4 -1,4 37 20 65 35 W
18.01.2021 04:00:00 -1,1 -1,1 37 20 46 25 W
18.01.2021 03:00:00 -1,3 -1,3 44 24 59 32 W
18.01.2021 02:00:00 -1,0 -1,0 44 24 63 34 W
18.01.2021 01:00:00 -0,8 -0,8 50 27 81 44 WNW
18.01.2021 00:00:00 -0,7 -0,7 55 30 78 42 W
17.01.2021 23:00:00 0,3 0,3 54 29 74 40 W
17.01.2021 22:00:00 0,7 0,7 57 31 85 46 WNW
17.01.2021 21:00:00 0,9 0,9 46 25 70 38 W
17.01.2021 20:00:00 1,2 1,2 57 31 76 41 WSW
17.01.2021 19:00:00 1,3 1,3 50 27 67 36 WSW
17.01.2021 18:00:00 1,3 1,3 48 26 65 35 W
17.01.2021 17:00:00 0,9 0,9 48 26 74 40 W
17.01.2021 16:00:00 1,5 1,5 44 24 59 32 W
17.01.2021 15:00:00 0,9 0,9 52 28 65 35 W
17.01.2021 14:00:00 -0,5 -0,5 31 17 50 27 SW
17.01.2021 13:00:00 -0,3 -0,3 37 20 63 34 SSW
17.01.2021 12:00:00 -0,2 -0,2 44 24 61 33 WSW
17.01.2021 11:00:00 0,1 0,1 39 21 55 30 WSW
17.01.2021 10:00:00 -0,4 -0,4 44 24 59 32 W
17.01.2021 09:00:00 -1,0 -1,0 44 24 54 29 W
17.01.2021 08:00:00 -0,9 -0,9 35 19 48 26 WNW
17.01.2021 07:00:00 -1,4 -1,4 44 24 57 31 WNW
17.01.2021 06:00:00 -1,3 -1,3 54 29 72 39 WNW
17.01.2021 05:00:00 -0,8 -0,8 54 29 63 34 WNW
17.01.2021 04:00:00 -0,9 -0,9 55 30 67 36 WNW
17.01.2021 03:00:00 -0,6 -0,6 52 28 74 40 WNW
17.01.2021 02:00:00 -1,1 -1,1 54 29 76 41 WNW
17.01.2021 01:00:00 -0,7 -0,7 52 28 65 35 WNW
17.01.2021 00:00:00 -0,7 -0,7 44 24 74 40 W
16.01.2021 23:00:00 -1,1 -1,1 55 30 70 38 WNW
16.01.2021 22:00:00 -0,6 -0,6 55 30 67 36 WNW
16.01.2021 21:00:00 -0,4 -0,4 50 27 76 41 WNW
16.01.2021 20:00:00 -0,4 -0,4 50 27 78 42 W
16.01.2021 19:00:00 -0,3 -0,3 61 33 76 41 W
16.01.2021 18:00:00 0,0 0,0 59 32 74 40 W
16.01.2021 17:00:00 0,2 0,2 54 29 81 44 W
16.01.2021 16:00:00 - - 55 30 94 51 W
16.01.2021 15:00:00 0,7 0,7 72 39 98 53 W
16.01.2021 14:00:00 1,1 1,1 81 44 98 53 WNW
16.01.2021 13:00:00 1,7 1,7 78 42 102 55 WNW
16.01.2021 12:00:00 2,1 2,1 70 38 89 48 W
16.01.2021 11:00:00 2,5 2,5 68 37 94 51 W
16.01.2021 10:00:00 2,6 2,6 54 29 76 41 WSW
16.01.2021 09:00:00 2,9 2,9 59 32 89 48 SW
16.01.2021 08:00:00 2,7 2,7 74 40 98 53 SSW
16.01.2021 07:00:00 2,4 2,4 67 36 94 51 SSW
16.01.2021 06:00:00 2,0 2,0 70 38 104 56 S
16.01.2021 05:00:00 1,9 1,9 41 22 94 51 S
16.01.2021 04:00:00 1,8 1,8 55 30 120 65 S
16.01.2021 03:00:00 1,0 1,0 54 29 96 52 SSE
16.01.2021 02:00:00 0,6 0,6 42 23 74 40 SSE
16.01.2021 01:00:00 0,2 0,2 31 17 78 42 SE
16.01.2021 00:00:00 0,2 0,2 22 12 78 42 SE
15.01.2021 23:00:00 -0,1 -0,1 15 8 55 30 ENE
15.01.2021 22:00:00 -0,6 -0,6 31 17 74 40 SE
15.01.2021 21:00:00 -1,1 -1,4 21 11 85 46 SE
15.01.2021 20:00:00 -0,4 -3,7 59 32 87 47 SSE
15.01.2021 19:00:00 -1,6 -4,0 15 8 65 35 ESE
15.01.2021 18:00:00 -1,7 -3,3 31 17 72 39 SE
15.01.2021 17:00:00 -2,1 -3,1 11 6 52 28 S
15.01.2021 16:00:00 -2,0 -3,3 42 23 52 28 SSE
15.01.2021 15:00:00 -1,7 -2,6 42 23 55 30 SSE
15.01.2021 14:00:00 -1,6 -2,3 42 23 54 29 SSE
15.01.2021 13:00:00 -1,4 -1,4 46 25 54 29 SSE
15.01.2021 12:00:00 -1,2 -1,2 34 18 48 26 SSE
15.01.2021 11:00:00 -0,5 -0,5 31 17 - - SSE
15.01.2021 10:00:00 -0,2 -0,2 24 13 - - S
15.01.2021 09:00:00 -0,3 -0,3 31 17 57 31 S
15.01.2021 08:00:00 -0,1 -0,1 24 13 59 32 S
15.01.2021 07:00:00 -0,2 -0,2 29 16 55 30 S
15.01.2021 06:00:00 0,0 0,0 39 21 57 31 S
15.01.2021 05:00:00 0,0 0,0 18 10 - - SW

tt = temperature
td = dewpoint
ff = wind speed
fx = gusts
dd = wind direction

Next stations